Time;durP1;ratioP1;P1;durP2;ratioP2;P2;SDS_P1;SDS_P2;PMS_P1;PMS_P2;Temp;Humidity;BMP_temperature;BMP_pressure;BME280_temperature;BME280_humidity;BME280_pressure;Samples;Min_cycle;Max_cycle;Signal;HPM_P1;HPM_P2
2022/12/01 00:00:34;;;;;;;26.47;13.80;;;;;;;;;;6248237;28;20076;-77
2022/12/01 00:03:35;;;;;;;34.20;16.13;;;;;;;;;;6245382;28;20084;-77
2022/12/01 00:06:35;;;;;;;29.97;15.20;;;;;;;;;;6247550;28;20057;-77
2022/12/01 00:12:55;;;;;;;28.95;13.82;;;;;;;;;;6247025;28;20049;-78
2022/12/01 00:15:55;;;;;;;34.55;17.98;;;;;;;;;;6247551;28;20033;-77
2022/12/01 00:18:56;;;;;;;35.63;18.17;;;;;;;;;;6243647;28;20018;-77
2022/12/01 00:21:56;;;;;;;37.67;17.23;;;;;;;;;;6246705;28;20025;-78
2022/12/01 00:24:56;;;;;;;37.10;19.37;;;;;;;;;;6248209;28;20482;-77
2022/12/01 00:27:57;;;;;;;31.97;18.40;;;;;;;;;;6246119;28;20033;-77
2022/12/01 00:30:58;;;;;;;30.73;16.93;;;;;;;;;;6245725;28;20013;-77
2022/12/01 00:33:59;;;;;;;33.47;18.17;;;;;;;;;;6247974;28;20279;-77
2022/12/01 00:36:59;;;;;;;29.53;15.07;;;;;;;;;;6239284;28;20055;-77
2022/12/01 00:40:00;;;;;;;35.83;17.63;;;;;;;;;;6247266;28;20562;-78
2022/12/01 00:43:00;;;;;;;25.60;14.10;;;;;;;;;;6239912;28;20383;-77
2022/12/01 00:46:00;;;;;;;28.73;16.13;;;;;;;;;;6236863;28;20478;-77
2022/12/01 00:49:00;;;;;;;33.47;18.70;;;;;;;;;;6237654;28;20017;-77
2022/12/01 00:52:00;;;;;;;35.50;19.13;;;;;;;;;;6246438;28;20025;-77
2022/12/01 00:55:00;;;;;;;29.58;16.42;;;;;;;;;;6247399;28;20053;-77
2022/12/01 00:58:01;;;;;;;32.22;16.98;;;;;;;;;;6247854;28;20037;-77
2022/12/01 01:01:01;;;;;;;33.43;18.20;;;;;;;;;;6246484;28;20128;-78
2022/12/01 01:04:01;;;;;;;31.07;16.03;;;;;;;;;;6247651;28;20025;-76
2022/12/01 01:07:02;;;;;;;34.47;17.90;;;;;;;;;;6235201;28;20001;-76
2022/12/01 01:10:02;;;;;;;27.40;16.47;;;;;;;;;;6239904;28;20022;-76
2022/12/01 01:13:02;;;;;;;37.40;18.80;;;;;;;;;;6239347;28;20385;-77
2022/12/01 01:16:13;;;;;;;34.25;15.93;;;;;;;;;;6242530;28;20022;-77
2022/12/01 01:19:13;;;;;;;36.08;16.63;;;;;;;;;;6246466;28;20540;-77
2022/12/01 01:22:13;;;;;;;34.43;16.43;;;;;;;;;;6232715;28;20031;-77
2022/12/01 01:25:13;;;;;;;24.13;15.30;;;;;;;;;;6247138;28;20023;-77
2022/12/01 01:28:14;;;;;;;30.47;15.90;;;;;;;;;;6247127;28;20033;-77
2022/12/01 01:31:15;;;;;;;30.30;17.23;;;;;;;;;;6237616;28;20047;-77
2022/12/01 01:34:15;;;;;;;33.83;17.67;;;;;;;;;;6249611;28;20021;-77
2022/12/01 01:37:15;;;;;;;34.03;17.30;;;;;;;;;;6243425;28;20032;-77
2022/12/01 01:40:16;;;;;;;33.53;18.35;;;;;;;;;;6245846;28;20017;-77
2022/12/01 01:43:17;;;;;;;27.83;15.40;;;;;;;;;;6244991;28;20025;-77
2022/12/01 01:46:22;;;;;;;32.13;18.17;;;;;;;;;;6245831;28;20017;-77
2022/12/01 01:49:22;;;;;;;28.63;16.50;;;;;;;;;;6243938;28;20013;-77
2022/12/01 01:52:22;;;;;;;29.80;18.23;;;;;;;;;;6228291;28;20056;-77
2022/12/01 01:55:23;;;;;;;32.87;16.40;;;;;;;;;;6247041;28;20017;-77
2022/12/01 01:58:23;;;;;;;33.80;17.40;;;;;;;;;;6236256;28;20017;-77
2022/12/01 02:01:23;;;;;;;30.07;17.27;;;;;;;;;;6245209;28;20084;-77
2022/12/01 02:04:24;;;;;;;33.50;16.27;;;;;;;;;;6246959;28;20017;-77
2022/12/01 02:07:24;;;;;;;30.40;16.63;;;;;;;;;;6243650;28;20472;-77
2022/12/01 02:54:24;;;;;;;27.02;16.50;;;;;;;;;;6313001;27;20381;-78
2022/12/01 02:58:48;;;;;;;36.45;17.98;;;;;;;;;;6265656;28;20402;-79
2022/12/01 03:01:56;;;;;;;28.07;16.83;;;;;;;;;;6276716;28;20410;-79
2022/12/01 03:05:09;;;;;;;28.15;16.83;;;;;;;;;;6261413;28;20022;-79
2022/12/01 03:08:29;;;;;;;33.13;16.20;;;;;;;;;;6249351;28;20021;-79
2022/12/01 03:11:34;;;;;;;31.42;16.80;;;;;;;;;;6259717;28;20685;-78
2022/12/01 03:14:38;;;;;;;27.50;16.48;;;;;;;;;;6258765;28;20380;-79
2022/12/01 03:17:46;;;;;;;29.63;17.42;;;;;;;;;;6275602;28;20203;-79
2022/12/01 03:20:50;;;;;;;25.35;14.80;;;;;;;;;;6273837;28;20024;-79
2022/12/01 03:23:54;;;;;;;23.38;13.80;;;;;;;;;;6258333;28;20472;-79
2022/12/01 03:26:56;;;;;;;28.65;15.65;;;;;;;;;;6259972;28;20393;-79
2022/12/01 03:29:56;;;;;;;;;;;;;;;;;;6259896;28;20519;-79
2022/12/01 03:33:00;;;;;;;24.30;14.10;;;;;;;;;;6258098;28;19912;-79
2022/12/01 03:36:02;;;;;;;25.25;15.90;;;;;;;;;;6260234;28;20519;-79
2022/12/01 03:39:05;;;;;;;28.38;16.00;;;;;;;;;;6257907;28;20028;-79
2022/12/01 03:42:13;;;;;;;26.70;15.70;;;;;;;;;;6258673;28;20479;-79
2022/12/01 03:45:25;;;;;;;28.08;15.75;;;;;;;;;;6270837;28;20100;-79
2022/12/01 03:48:26;;;;;;;32.80;15.98;;;;;;;;;;6255199;28;20049;-78
2022/12/01 03:51:32;;;;;;;28.27;16.37;;;;;;;;;;6247573;28;20024;-78
2022/12/01 03:54:56;;;;;;;31.88;16.67;;;;;;;;;;6259163;28;20083;-78
2022/12/01 03:57:59;;;;;;;30.13;15.63;;;;;;;;;;6243816;28;20416;-78
2022/12/01 04:01:03;;;;;;;24.58;15.90;;;;;;;;;;6254084;28;20385;-78
2022/12/01 04:04:08;;;;;;;22.33;12.95;;;;;;;;;;6247220;28;20083;-79
2022/12/01 04:07:12;;;;;;;29.55;17.05;;;;;;;;;;6257386;28;20017;-79
2022/12/01 04:10:12;;;;;;;26.35;14.32;;;;;;;;;;6241407;28;20491;-79
2022/12/01 04:13:21;;;;;;;24.03;13.00;;;;;;;;;;6241774;28;20026;-78
2022/12/01 04:16:21;;;;;;;23.00;14.13;;;;;;;;;;6241949;28;20025;-79
2022/12/01 04:19:21;;;;;;;29.17;15.45;;;;;;;;;;6232548;28;20504;-79
2022/12/01 04:22:22;;;;;;;26.05;14.02;;;;;;;;;;6234877;28;20030;-79
2022/12/01 04:25:22;;;;;;;23.73;13.30;;;;;;;;;;6230534;28;20022;-78
2022/12/01 04:28:22;;;;;;;25.20;13.77;;;;;;;;;;6226970;28;20018;-78
2022/12/01 04:31:23;;;;;;;23.10;13.18;;;;;;;;;;6238452;28;20021;-78
2022/12/01 04:34:23;;;;;;;22.35;13.82;;;;;;;;;;6241631;28;20021;-78
2022/12/01 04:37:23;;;;;;;26.23;14.27;;;;;;;;;;6239953;28;20022;-78
2022/12/01 04:40:23;;;;;;;25.07;14.73;;;;;;;;;;6239955;28;20067;-78
2022/12/01 04:43:23;;;;;;;22.13;13.40;;;;;;;;;;6256459;28;20049;-78
2022/12/01 04:46:24;;;;;;;25.67;15.27;;;;;;;;;;6237848;28;20092;-78
2022/12/01 04:49:24;;;;;;;26.93;14.10;;;;;;;;;;6238353;28;20405;-79
2022/12/01 04:52:24;;;;;;;26.57;15.23;;;;;;;;;;6229366;28;20025;-78
2022/12/01 04:55:24;;;;;;;24.38;13.98;;;;;;;;;;6234514;28;20049;-78
2022/12/01 04:58:25;;;;;;;28.10;16.43;;;;;;;;;;6233149;28;20041;-77
2022/12/01 05:01:25;;;;;;;25.27;14.97;;;;;;;;;;6230297;28;20523;-78
2022/12/01 05:04:26;;;;;;;29.77;14.90;;;;;;;;;;6225427;28;20024;-78
2022/12/01 05:07:26;;;;;;;29.10;14.75;;;;;;;;;;6227354;28;20040;-78
2022/12/01 05:10:26;;;;;;;29.98;14.65;;;;;;;;;;6231540;28;20029;-78
2022/12/01 05:13:26;;;;;;;27.27;14.37;;;;;;;;;;6231706;28;20404;-78
2022/12/01 05:16:28;;;;;;;26.83;14.53;;;;;;;;;;6230806;28;20057;-78
2022/12/01 05:22:47;;;;;;;25.77;14.35;;;;;;;;;;6240743;28;20063;-78
2022/12/01 05:25:47;;;;;;;32.53;14.52;;;;;;;;;;6240089;28;20428;-78
2022/12/01 05:28:47;;;;;;;25.02;15.63;;;;;;;;;;6239432;28;20257;-78
2022/12/01 05:31:47;;;;;;;28.40;14.55;;;;;;;;;;6239574;28;20018;-78
2022/12/01 05:34:47;;;;;;;25.23;12.80;;;;;;;;;;6240545;28;20025;-78
2022/12/01 05:37:48;;;;;;;27.48;14.73;;;;;;;;;;6240695;28;20365;-78
2022/12/01 05:40:49;;;;;;;22.27;12.87;;;;;;;;;;6233845;28;20064;-76
2022/12/01 05:43:49;;;;;;;24.55;12.82;;;;;;;;;;6230982;28;20018;-76
2022/12/01 05:46:49;;;;;;;26.02;12.95;;;;;;;;;;6229820;28;20546;-76
2022/12/01 05:49:49;;;;;;;21.73;12.83;;;;;;;;;;6232236;28;20021;-76
2022/12/01 05:52:50;;;;;;;22.27;12.13;;;;;;;;;;6248583;28;20025;-76
2022/12/01 05:55:53;;;;;;;23.93;12.77;;;;;;;;;;6234811;28;20138;-76
2022/12/01 05:58:53;;;;;;;23.17;12.45;;;;;;;;;;6240563;28;20056;-76
2022/12/01 06:01:53;;;;;;;25.83;13.53;;;;;;;;;;6239641;28;20091;-76
2022/12/01 06:04:53;;;;;;;27.20;13.25;;;;;;;;;;6237888;28;20029;-76
2022/12/01 06:07:54;;;;;;;27.47;13.70;;;;;;;;;;6235760;28;20032;-76
2022/12/01 06:10:54;;;;;;;25.43;14.00;;;;;;;;;;6240499;28;20024;-76
2022/12/01 06:13:54;;;;;;;25.70;14.32;;;;;;;;;;6239341;28;20021;-76
2022/12/01 06:16:54;;;;;;;25.02;12.93;;;;;;;;;;6236443;28;20112;-76
2022/12/01 06:19:54;;;;;;;23.30;12.93;;;;;;;;;;6236284;28;20068;-75
2022/12/01 06:22:55;;;;;;;24.15;12.48;;;;;;;;;;6238592;28;20079;-76
2022/12/01 06:25:55;;;;;;;23.63;13.83;;;;;;;;;;6239091;28;20041;-76
2022/12/01 06:28:55;;;;;;;25.10;12.40;;;;;;;;;;6235625;28;20117;-76
2022/12/01 06:31:55;;;;;;;25.05;15.15;;;;;;;;;;6231493;28;20120;-76
2022/12/01 06:34:55;;;;;;;21.90;12.63;;;;;;;;;;6236945;28;20033;-76
2022/12/01 06:37:55;;;;;;;23.25;12.13;;;;;;;;;;6238447;28;20102;-75
2022/12/01 06:40:56;;;;;;;26.40;13.70;;;;;;;;;;6239543;28;20024;-75
2022/12/01 06:43:56;;;;;;;25.43;13.27;;;;;;;;;;6227001;28;20373;-76
2022/12/01 06:46:56;;;;;;;22.00;11.77;;;;;;;;;;6246904;28;20057;-77
2022/12/01 06:49:56;;;;;;;22.73;11.37;;;;;;;;;;6238513;28;20104;-76
2022/12/01 06:52:57;;;;;;;25.80;12.82;;;;;;;;;;6234873;28;20025;-76
2022/12/01 06:56:01;;;;;;;25.77;12.53;;;;;;;;;;6233659;28;20488;-76
2022/12/01 06:59:01;;;;;;;22.60;11.85;;;;;;;;;;6238425;28;20025;-76
2022/12/01 07:02:01;;;;;;;23.17;11.73;;;;;;;;;;6230343;28;20048;-76
2022/12/01 07:05:02;;;;;;;24.73;13.63;;;;;;;;;;6233131;28;20366;-76
2022/12/01 07:08:02;;;;;;;22.33;12.25;;;;;;;;;;6234239;28;20030;-76
2022/12/01 07:11:03;;;;;;;23.93;12.67;;;;;;;;;;6233709;28;20618;-76
2022/12/01 07:14:04;;;;;;;24.15;13.15;;;;;;;;;;6232054;28;20389;-77
2022/12/01 07:17:04;;;;;;;27.93;13.27;;;;;;;;;;6232597;28;20038;-77
2022/12/01 07:20:04;;;;;;;21.93;12.53;;;;;;;;;;6227755;28;20617;-77
2022/12/01 07:23:04;;;;;;;21.77;12.40;;;;;;;;;;6233666;28;20053;-75
2022/12/01 07:26:16;;;;;;;20.23;12.57;;;;;;;;;;6229333;28;20531;-76
2022/12/01 07:29:16;;;;;;;22.70;12.68;;;;;;;;;;6231735;28;20039;-76
2022/12/01 07:32:16;;;;;;;22.17;12.87;;;;;;;;;;6227181;28;20079;-75
2022/12/01 07:35:16;;;;;;;22.40;13.18;;;;;;;;;;6234200;28;20018;-77
2022/12/01 07:38:17;;;;;;;23.92;12.32;;;;;;;;;;6222766;28;20022;-76
2022/12/01 07:41:18;;;;;;;24.02;13.76;;;;;;;;;;6244713;28;20025;-76
2022/12/01 07:44:18;;;;;;;23.53;12.03;;;;;;;;;;6231533;28;20471;-76
2022/12/01 07:47:18;;;;;;;24.33;12.33;;;;;;;;;;6236624;28;20167;-76
2022/12/01 07:50:18;;;;;;;22.47;12.27;;;;;;;;;;6236894;28;20162;-76
2022/12/01 07:53:18;;;;;;;25.60;14.20;;;;;;;;;;6238106;28;20056;-75
2022/12/01 07:56:20;;;;;;;33.33;16.05;;;;;;;;;;6232419;28;20042;-77
2022/12/01 07:59:20;;;;;;;30.70;15.77;;;;;;;;;;6241240;28;20026;-75
2022/12/01 08:02:20;;;;;;;33.60;17.07;;;;;;;;;;6239538;28;20427;-77
2022/12/01 08:05:20;;;;;;;28.25;15.77;;;;;;;;;;6226432;28;20025;-75
2022/12/01 08:08:21;;;;;;;27.47;14.53;;;;;;;;;;6227580;28;20119;-75
2022/12/01 08:11:25;;;;;;;28.00;15.70;;;;;;;;;;6232704;28;20394;-76
2022/12/01 08:14:25;;;;;;;35.28;16.60;;;;;;;;;;6233880;28;20483;-75
2022/12/01 08:17:25;;;;;;;33.83;17.45;;;;;;;;;;6233212;28;20080;-76
2022/12/01 08:20:26;;;;;;;34.55;15.85;;;;;;;;;;6233137;28;20017;-76
2022/12/01 08:23:26;;;;;;;28.23;14.30;;;;;;;;;;6232005;28;20432;-76
2022/12/01 08:26:26;;;;;;;26.00;15.50;;;;;;;;;;6235236;28;20108;-75
2022/12/01 08:29:26;;;;;;;26.60;14.60;;;;;;;;;;6225859;28;20028;-77
2022/12/01 08:32:28;;;;;;;23.98;13.90;;;;;;;;;;6239873;28;20040;-77
2022/12/01 08:35:28;;;;;;;27.25;14.95;;;;;;;;;;6243221;28;20022;-76
2022/12/01 08:38:28;;;;;;;27.03;14.13;;;;;;;;;;6228344;28;20093;-76
2022/12/01 08:41:30;;;;;;;25.37;13.37;;;;;;;;;;6232199;28;20044;-76
2022/12/01 08:44:30;;;;;;;24.15;12.70;;;;;;;;;;6232067;28;20018;-77
2022/12/01 08:47:30;;;;;;;25.05;13.35;;;;;;;;;;6237888;28;20022;-76
2022/12/01 08:50:30;;;;;;;21.95;12.45;;;;;;;;;;6233956;28;20108;-76
2022/12/01 08:53:31;;;;;;;17.85;8.75;;;;;;;;;;6233777;28;20032;-76
2022/12/01 08:56:36;;;;;;;24.00;12.03;;;;;;;;;;6244691;28;20041;-76
2022/12/01 08:59:36;;;;;;;24.58;12.57;;;;;;;;;;6239951;28;20055;-76
2022/12/01 09:02:36;;;;;;;21.20;11.37;;;;;;;;;;6243591;28;20014;-76
2022/12/01 09:05:37;;;;;;;24.83;13.67;;;;;;;;;;6228324;28;20025;-77
2022/12/01 09:08:37;;;;;;;25.52;13.07;;;;;;;;;;6237272;28;20021;-76
2022/12/01 09:11:37;;;;;;;25.27;11.37;;;;;;;;;;6237146;28;20417;-76
2022/12/01 09:14:38;;;;;;;22.97;12.97;;;;;;;;;;6235073;28;20133;-76
2022/12/01 09:17:39;;;;;;;21.73;12.37;;;;;;;;;;6228398;28;20099;-76
2022/12/01 09:20:39;;;;;;;19.75;11.68;;;;;;;;;;6224790;28;20030;-76
2022/12/01 09:23:39;;;;;;;22.80;13.88;;;;;;;;;;6228114;28;20028;-76
2022/12/01 09:26:40;;;;;;;22.33;13.27;;;;;;;;;;6224990;28;20035;-76
2022/12/01 09:29:40;;;;;;;24.63;13.97;;;;;;;;;;6230436;28;20313;-76
2022/12/01 09:32:40;;;;;;;26.70;13.10;;;;;;;;;;6226156;28;20025;-76
2022/12/01 09:35:40;;;;;;;25.63;12.48;;;;;;;;;;6229603;28;20495;-76
2022/12/01 09:38:40;;;;;;;22.07;12.37;;;;;;;;;;6225522;28;20644;-76
2022/12/01 09:41:58;;;;;;;24.73;12.85;;;;;;;;;;6223786;28;20489;-75
2022/12/01 09:45:01;;;;;;;26.65;12.70;;;;;;;;;;6221363;28;20014;-76
2022/12/01 09:48:02;;;;;;;21.25;12.50;;;;;;;;;;6226201;28;20355;-76
2022/12/01 09:51:02;;;;;;;25.90;11.93;;;;;;;;;;6221104;28;20026;-75
2022/12/01 09:54:03;;;;;;;28.13;13.50;;;;;;;;;;6230992;28;20029;-76
2022/12/01 09:57:03;;;;;;;22.13;12.03;;;;;;;;;;6237118;28;20392;-76
2022/12/01 10:00:06;;;;;;;21.37;12.17;;;;;;;;;;6236039;28;20017;-75
2022/12/01 10:03:07;;;;;;;23.50;12.57;;;;;;;;;;6230030;28;20026;-75
2022/12/01 10:06:14;;;;;;;20.10;11.43;;;;;;;;;;6227396;28;20067;-76
2022/12/01 10:09:33;;;;;;;23.92;11.00;;;;;;;;;;6231283;28;20006;-75
2022/12/01 10:12:34;;;;;;;23.98;12.77;;;;;;;;;;6230368;28;20010;-75
2022/12/01 10:15:41;;;;;;;27.17;14.05;;;;;;;;;;6228252;28;20075;-75
2022/12/01 10:18:41;;;;;;;23.00;12.73;;;;;;;;;;6223240;28;20280;-76
2022/12/01 10:21:50;;;;;;;27.40;14.43;;;;;;;;;;6227186;28;20194;-76
2022/12/01 10:24:57;;;;;;;25.75;13.55;;;;;;;;;;6223194;28;20048;-76
2022/12/01 10:28:03;;;;;;;26.95;15.10;;;;;;;;;;6223323;28;20493;-75
2022/12/01 10:31:10;;;;;;;20.88;13.43;;;;;;;;;;6227084;28;20191;-75
2022/12/01 10:34:15;;;;;;;18.92;12.25;;;;;;;;;;6220411;28;20108;-76
2022/12/01 10:37:18;;;;;;;21.25;11.73;;;;;;;;;;6219593;28;20026;-77
2022/12/01 10:40:18;;;;;;;21.80;11.10;;;;;;;;;;6233027;28;20432;-76
2022/12/01 10:43:25;;;;;;;22.27;12.33;;;;;;;;;;6234965;28;20068;-76
2022/12/01 10:46:45;;;;;;;20.48;10.75;;;;;;;;;;6227276;28;20029;-76
2022/12/01 10:49:46;;;;;;;16.92;9.40;;;;;;;;;;6229557;28;20436;-75
2022/12/01 10:52:47;;;;;;;16.53;9.70;;;;;;;;;;6232106;28;20052;-76
2022/12/01 10:56:11;;;;;;;19.00;9.30;;;;;;;;;;6222822;28;20068;-76
2022/12/01 10:59:20;;;;;;;14.82;8.25;;;;;;;;;;6230353;28;20559;-76
2022/12/01 11:02:21;;;;;;;13.32;8.02;;;;;;;;;;6216650;28;20033;-76
2022/12/01 11:05:23;;;;;;;13.65;8.13;;;;;;;;;;6242760;28;20021;-76
2022/12/01 11:08:30;;;;;;;16.67;8.45;;;;;;;;;;6237590;28;20021;-76
2022/12/01 11:11:32;;;;;;;14.20;8.38;;;;;;;;;;6225109;28;20072;-76
2022/12/01 11:14:59;;;;;;;18.13;8.68;;;;;;;;;;6226049;28;20025;-77
2022/12/01 11:18:01;;;;;;;15.88;9.77;;;;;;;;;;6221313;28;20107;-77
2022/12/01 11:21:04;;;;;;;22.08;10.85;;;;;;;;;;6224836;28;20025;-76
2022/12/01 11:24:14;;;;;;;21.35;12.23;;;;;;;;;;6233295;28;20040;-76
2022/12/01 11:27:19;;;;;;;17.17;10.35;;;;;;;;;;6240047;28;20463;-76
2022/12/01 11:30:22;;;;;;;19.45;10.93;;;;;;;;;;6237396;28;20109;-76
2022/12/01 11:33:23;;;;;;;19.02;10.52;;;;;;;;;;6226760;28;20099;-76
2022/12/01 11:36:35;;;;;;;19.33;12.17;;;;;;;;;;6229117;28;20542;-76
2022/12/01 11:39:37;;;;;;;21.15;11.57;;;;;;;;;;6232054;28;20022;-75
2022/12/01 11:42:39;;;;;;;20.55;12.45;;;;;;;;;;6227867;28;20397;-75
2022/12/01 11:45:39;;;;;;;;;;;;;;;;;;6224190;28;20026;-75
2022/12/01 11:48:39;;;;;;;18.27;10.50;;;;;;;;;;6235819;28;20118;-74
2022/12/01 11:51:39;;;;;;;19.83;12.20;;;;;;;;;;6238430;28;20455;-75
2022/12/01 11:54:53;;;;;;;19.53;10.10;;;;;;;;;;6237505;28;20052;-76
2022/12/01 11:58:02;;;;;;;18.13;10.35;;;;;;;;;;6230777;28;20052;-76
2022/12/01 12:01:04;;;;;;;19.38;10.35;;;;;;;;;;6237311;28;20049;-76
2022/12/01 12:04:15;;;;;;;19.00;9.50;;;;;;;;;;6235825;28;20461;-77
2022/12/01 12:07:15;;;;;;;18.38;9.40;;;;;;;;;;6227921;28;20030;-76
2022/12/01 12:10:21;;;;;;;20.67;10.53;;;;;;;;;;6237100;28;20116;-75
2022/12/01 12:13:33;;;;;;;20.13;11.30;;;;;;;;;;6232094;28;20165;-76
2022/12/01 12:16:33;;;;;;;21.80;12.35;;;;;;;;;;6228973;28;20790;-76
2022/12/01 12:19:59;;;;;;;19.38;10.55;;;;;;;;;;6228948;28;20487;-76
2022/12/01 12:22:59;;;;;;;21.75;12.80;;;;;;;;;;6223631;28;20481;-77
2022/12/01 12:25:59;;;;;;;20.92;11.45;;;;;;;;;;6233320;28;20608;-75
2022/12/01 12:29:18;;;;;;;21.13;10.68;;;;;;;;;;6232055;28;20065;-76
2022/12/01 12:32:40;;;;;;;21.05;11.43;;;;;;;;;;6223011;28;20105;-76
2022/12/01 12:35:59;;;;;;;17.30;10.02;;;;;;;;;;6230066;28;20021;-75
2022/12/01 12:39:19;;;;;;;19.42;10.85;;;;;;;;;;6230607;28;20029;-76
2022/12/01 12:42:28;;;;;;;22.00;9.77;;;;;;;;;;6238568;28;20128;-77
2022/12/01 12:45:44;;;;;;;19.67;9.77;;;;;;;;;;6229640;28;20021;-76
2022/12/01 12:48:44;;;;;;;16.73;9.63;;;;;;;;;;6236392;28;20029;-76
2022/12/01 12:51:44;;;;;;;20.55;12.02;;;;;;;;;;6227236;28;20053;-76
2022/12/01 12:54:48;;;;;;;22.67;10.20;;;;;;;;;;6230774;28;20029;-75
2022/12/01 12:57:51;;;;;;;18.00;11.27;;;;;;;;;;6232310;28;20123;-75
2022/12/01 13:00:59;;;;;;;17.80;10.30;;;;;;;;;;6228659;28;20024;-76
2022/12/01 13:04:08;;;;;;;19.10;9.98;;;;;;;;;;6227826;28;20148;-76
2022/12/01 13:07:14;;;;;;;18.30;11.00;;;;;;;;;;6226705;28;20049;-76
2022/12/01 13:10:21;;;;;;;23.48;12.40;;;;;;;;;;6231499;28;20432;-76
2022/12/01 13:13:30;;;;;;;21.30;12.18;;;;;;;;;;6233465;28;20020;-76
2022/12/01 13:16:33;;;;;;;20.13;12.05;;;;;;;;;;6244934;28;20029;-76
2022/12/01 13:19:35;;;;;;;22.95;12.27;;;;;;;;;;6234474;28;20021;-76
2022/12/01 13:22:35;;;;;;;;;;;;;;;;;;6237656;28;20025;-76
2022/12/01 13:25:38;;;;;;;22.65;13.10;;;;;;;;;;6231458;28;19936;-76
2022/12/01 13:28:44;;;;;;;25.88;12.30;;;;;;;;;;6247107;28;20085;-75
2022/12/01 13:31:49;;;;;;;17.60;9.10;;;;;;;;;;6233788;28;20214;-76
2022/12/01 13:34:49;;;;;;;21.15;10.32;;;;;;;;;;6232337;28;20049;-76
2022/12/01 13:37:49;;;;;;;19.20;10.40;;;;;;;;;;6223106;28;20551;-77
2022/12/01 13:41:16;;;;;;;18.13;10.17;;;;;;;;;;6226599;28;20033;-76
2022/12/01 13:44:31;;;;;;;20.75;10.85;;;;;;;;;;6229035;28;20404;-76
2022/12/01 13:47:50;;;;;;;19.40;11.70;;;;;;;;;;6245765;28;20449;-76
2022/12/01 13:50:55;;;;;;;19.15;10.20;;;;;;;;;;6232410;28;20028;-76
2022/12/01 13:53:55;;;;;;;17.10;8.50;;;;;;;;;;6235013;28;20029;-76
2022/12/01 13:57:03;;;;;;;13.05;8.38;;;;;;;;;;6231458;28;20049;-76
2022/12/01 14:00:03;;;;;;;16.27;8.70;;;;;;;;;;6231140;28;20052;-76
2022/12/01 14:03:12;;;;;;;15.85;8.32;;;;;;;;;;6233099;28;20079;-76
2022/12/01 14:06:23;;;;;;;16.70;8.35;;;;;;;;;;6231650;28;20508;-75
2022/12/01 14:09:30;;;;;;;18.50;9.18;;;;;;;;;;6240036;28;20014;-75
2022/12/01 14:12:33;;;;;;;15.80;9.60;;;;;;;;;;6219549;28;20025;-76
2022/12/01 14:15:36;;;;;;;16.42;8.32;;;;;;;;;;6222700;28;20014;-75
2022/12/01 14:18:47;;;;;;;14.82;9.02;;;;;;;;;;6225180;28;20441;-75
2022/12/01 14:21:49;;;;;;;15.88;8.13;;;;;;;;;;6226437;28;20264;-76
2022/12/01 14:24:51;;;;;;;14.02;7.78;;;;;;;;;;6216999;28;20013;-75
2022/12/01 14:27:53;;;;;;;13.52;8.20;;;;;;;;;;6225639;28;20021;-75
2022/12/01 14:30:53;;;;;;;16.55;9.68;;;;;;;;;;6235251;28;20013;-75
2022/12/01 14:34:17;;;;;;;19.45;10.38;;;;;;;;;;6229703;28;20036;-75
2022/12/01 14:37:22;;;;;;;25.20;11.50;;;;;;;;;;6234810;28;20018;-75
2022/12/01 14:40:23;;;;;;;16.77;8.93;;;;;;;;;;6234939;28;20083;-75
2022/12/01 14:46:48;;;;;;;16.83;8.55;;;;;;;;;;6227911;28;20285;-76
2022/12/01 14:49:52;;;;;;;17.42;10.20;;;;;;;;;;6227232;28;20029;-76
2022/12/01 14:52:56;;;;;;;17.67;9.02;;;;;;;;;;6230235;28;20503;-76
2022/12/01 14:56:01;;;;;;;18.92;10.00;;;;;;;;;;6224914;28;20648;-75
2022/12/01 14:59:12;;;;;;;19.38;10.70;;;;;;;;;;6228498;28;20108;-75
2022/12/01 15:02:13;;;;;;;17.67;9.35;;;;;;;;;;6225024;28;20025;-75
2022/12/01 15:05:18;;;;;;;23.60;11.47;;;;;;;;;;6235359;28;20017;-75
2022/12/01 15:08:22;;;;;;;15.50;8.38;;;;;;;;;;6231186;28;20110;-77
2022/12/01 15:11:24;;;;;;;14.52;8.40;;;;;;;;;;6233238;28;20032;-75
2022/12/01 15:14:29;;;;;;;16.83;9.13;;;;;;;;;;6229227;28;20026;-75
2022/12/01 15:17:31;;;;;;;12.90;7.72;;;;;;;;;;6231900;28;20040;-76
2022/12/01 15:20:33;;;;;;;15.25;8.18;;;;;;;;;;6230038;28;20391;-77
2022/12/01 15:23:34;;;;;;;17.63;9.15;;;;;;;;;;6227257;28;20096;-75
2022/12/01 15:26:35;;;;;;;13.27;9.40;;;;;;;;;;6225271;28;20078;-75
2022/12/01 15:29:45;;;;;;;17.25;8.90;;;;;;;;;;6224671;28;20033;-76
2022/12/01 15:32:45;;;;;;;16.08;8.63;;;;;;;;;;6238454;28;20048;-75
2022/12/01 15:35:47;;;;;;;21.97;11.53;;;;;;;;;;6231886;28;20108;-75
2022/12/01 15:38:47;;;;;;;17.30;9.00;;;;;;;;;;6224140;28;20084;-75
2022/12/01 15:41:52;;;;;;;16.40;9.80;;;;;;;;;;6217821;28;20286;-75
2022/12/01 15:44:57;;;;;;;18.40;10.00;;;;;;;;;;6231336;28;20147;-75
2022/12/01 15:47:58;;;;;;;18.58;10.20;;;;;;;;;;6212058;28;20022;-75
2022/12/01 15:51:31;;;;;;;18.67;9.87;;;;;;;;;;6224647;28;20018;-75
2022/12/01 15:54:31;;;;;;;16.92;9.18;;;;;;;;;;6215517;28;20448;-75
2022/12/01 15:57:34;;;;;;;21.93;12.03;;;;;;;;;;6223175;28;20064;-75
2022/12/01 16:00:35;;;;;;;19.25;10.32;;;;;;;;;;6230427;28;20313;-75
2022/12/01 16:03:47;;;;;;;20.00;12.77;;;;;;;;;;6232088;28;20423;-75
2022/12/01 16:06:58;;;;;;;18.85;10.30;;;;;;;;;;6248266;28;20476;-75
2022/12/01 16:09:59;;;;;;;15.40;8.15;;;;;;;;;;6234775;28;20021;-74
2022/12/01 16:13:17;;;;;;;16.43;9.73;;;;;;;;;;6240697;28;20028;-75
2022/12/01 16:16:18;;;;;;;17.15;9.13;;;;;;;;;;6251187;28;20080;-75
2022/12/01 16:19:25;;;;;;;22.20;9.33;;;;;;;;;;6227263;28;20473;-75
2022/12/01 16:22:25;;;;;;;19.92;9.23;;;;;;;;;;6236884;28;20527;-75
2022/12/01 16:25:28;;;;;;;16.37;9.20;;;;;;;;;;6233936;28;20021;-75
2022/12/01 16:28:34;;;;;;;17.15;8.90;;;;;;;;;;6236974;28;20116;-76
2022/12/01 16:31:34;;;;;;;15.88;8.18;;;;;;;;;;6232912;28;20526;-77
2022/12/01 16:34:36;;;;;;;17.80;9.60;;;;;;;;;;6228271;28;20160;-75
2022/12/01 16:37:36;;;;;;;15.77;9.25;;;;;;;;;;6235193;28;20029;-75
2022/12/01 16:40:39;;;;;;;17.08;10.25;;;;;;;;;;6238517;28;20376;-75
2022/12/01 16:43:39;;;;;;;15.68;9.18;;;;;;;;;;6233864;28;20075;-76
2022/12/01 16:46:39;;;;;;;10.43;7.63;;;;;;;;;;6232462;28;20455;-76
2022/12/01 16:49:40;;;;;;;14.30;9.77;;;;;;;;;;6230110;28;20088;-75
2022/12/01 16:52:40;;;;;;;15.27;8.67;;;;;;;;;;6231144;28;20056;-76
2022/12/01 16:55:42;;;;;;;15.90;9.20;;;;;;;;;;6233013;28;20029;-76
2022/12/01 16:58:43;;;;;;;18.33;10.50;;;;;;;;;;6231132;28;20080;-75
2022/12/01 17:01:44;;;;;;;17.15;9.82;;;;;;;;;;6223374;28;20024;-75
2022/12/01 17:04:44;;;;;;;16.80;10.02;;;;;;;;;;6219923;28;20009;-75
2022/12/01 17:07:44;;;;;;;18.83;10.23;;;;;;;;;;6232624;28;20017;-75
2022/12/01 17:10:45;;;;;;;25.30;14.20;;;;;;;;;;6231659;28;20027;-75
2022/12/01 17:13:46;;;;;;;19.27;10.45;;;;;;;;;;6236071;28;20392;-75
2022/12/01 17:16:46;;;;;;;22.47;10.87;;;;;;;;;;6236508;28;20028;-76
2022/12/01 17:19:46;;;;;;;16.90;9.50;;;;;;;;;;6236669;28;20356;-75
2022/12/01 17:22:46;;;;;;;18.47;9.03;;;;;;;;;;6237343;28;20091;-75
2022/12/01 17:25:46;;;;;;;19.42;11.73;;;;;;;;;;6235201;28;20025;-75
2022/12/01 17:28:47;;;;;;;20.73;10.87;;;;;;;;;;6231000;28;20020;-75
2022/12/01 17:31:47;;;;;;;24.87;10.93;;;;;;;;;;6222888;28;20030;-76
2022/12/01 17:34:47;;;;;;;23.13;11.33;;;;;;;;;;6218479;28;20271;-75
2022/12/01 17:37:48;;;;;;;19.10;12.65;;;;;;;;;;6219861;28;20045;-75
2022/12/01 17:40:58;;;;;;;25.00;13.37;;;;;;;;;;6233456;28;20380;-76
2022/12/01 17:44:00;;;;;;;28.92;13.55;;;;;;;;;;6236997;28;20026;-75
2022/12/01 17:47:00;;;;;;;;;;;;;;;;;;6236906;28;20653;-76
2022/12/01 17:50:00;;;;;;;27.52;14.23;;;;;;;;;;6237383;28;20462;-76
2022/12/01 17:53:00;;;;;;;25.43;12.77;;;;;;;;;;6230925;28;20063;-75
2022/12/01 17:56:01;;;;;;;26.13;14.45;;;;;;;;;;6232059;28;20100;-75
2022/12/01 17:59:01;;;;;;;23.50;11.93;;;;;;;;;;6223801;28;20068;-76
2022/12/01 18:02:02;;;;;;;27.53;14.60;;;;;;;;;;6222441;28;20037;-76
2022/12/01 18:05:02;;;;;;;29.33;13.07;;;;;;;;;;6232760;28;20610;-75
2022/12/01 18:08:02;;;;;;;28.77;14.83;;;;;;;;;;6233887;28;20029;-75
2022/12/01 18:11:08;;;;;;;28.40;14.03;;;;;;;;;;6233288;28;20025;-77
2022/12/01 18:14:08;;;;;;;26.45;13.10;;;;;;;;;;6229308;28;20029;-75
2022/12/01 18:17:09;;;;;;;29.13;14.83;;;;;;;;;;6233048;28;20698;-76
2022/12/01 18:20:09;;;;;;;27.63;14.23;;;;;;;;;;6233806;28;20017;-77
2022/12/01 18:23:10;;;;;;;24.33;13.13;;;;;;;;;;6234218;28;20092;-75
2022/12/01 18:26:11;;;;;;;27.10;12.18;;;;;;;;;;6236328;28;20048;-76
2022/12/01 18:29:15;;;;;;;22.53;12.27;;;;;;;;;;6232909;28;20018;-75
2022/12/01 18:32:15;;;;;;;21.75;12.60;;;;;;;;;;6223930;28;20550;-77
2022/12/01 18:35:16;;;;;;;24.07;12.90;;;;;;;;;;6222647;28;20117;-76
2022/12/01 18:38:16;;;;;;;24.63;13.73;;;;;;;;;;6226890;28;20540;-76
2022/12/01 18:41:17;;;;;;;30.03;13.40;;;;;;;;;;6232185;28;20014;-76
2022/12/01 18:44:17;;;;;;;26.47;14.03;;;;;;;;;;6226106;28;20385;-75